sensor_id;sensor_type;location;lat;lon;timestamp;P1;durP1;ratioP1;P2;durP2;ratioP2
28960;SDS011;16068;42.896;20.868;2023-03-13T00:00:10;20.33;;;8.95;;
28960;SDS011;16068;42.896;20.868;2023-03-13T00:02:56;16.00;;;7.10;;
28960;SDS011;16068;42.896;20.868;2023-03-13T00:05:42;12.25;;;6.40;;
28960;SDS011;16068;42.896;20.868;2023-03-13T00:08:28;17.30;;;6.78;;
28960;SDS011;16068;42.896;20.868;2023-03-13T00:11:14;12.85;;;6.35;;
28960;SDS011;16068;42.896;20.868;2023-03-13T00:14:02;15.68;;;6.65;;
28960;SDS011;16068;42.896;20.868;2023-03-13T00:16:49;14.25;;;5.93;;
28960;SDS011;16068;42.896;20.868;2023-03-13T00:19:35;19.45;;;5.55;;
28960;SDS011;16068;42.896;20.868;2023-03-13T00:22:21;13.80;;;6.10;;
28960;SDS011;16068;42.896;20.868;2023-03-13T00:25:06;10.30;;;5.80;;
28960;SDS011;16068;42.896;20.868;2023-03-13T00:27:52;13.15;;;6.32;;
28960;SDS011;16068;42.896;20.868;2023-03-13T00:30:38;13.80;;;6.20;;
28960;SDS011;16068;42.896;20.868;2023-03-13T00:33:24;10.20;;;5.90;;
28960;SDS011;16068;42.896;20.868;2023-03-13T00:36:11;14.88;;;6.13;;
28960;SDS011;16068;42.896;20.868;2023-03-13T00:39:08;17.02;;;6.60;;
28960;SDS011;16068;42.896;20.868;2023-03-13T00:41:54;11.63;;;6.47;;
28960;SDS011;16068;42.896;20.868;2023-03-13T00:44:39;13.90;;;7.20;;
28960;SDS011;16068;42.896;20.868;2023-03-13T00:47:27;14.75;;;7.00;;
28960;SDS011;16068;42.896;20.868;2023-03-13T00:50:12;14.32;;;7.07;;
28960;SDS011;16068;42.896;20.868;2023-03-13T00:52:59;11.02;;;7.28;;
28960;SDS011;16068;42.896;20.868;2023-03-13T00:58:42;14.57;;;6.85;;
28960;SDS011;16068;42.896;20.868;2023-03-13T01:01:33;15.48;;;8.20;;
28960;SDS011;16068;42.896;20.868;2023-03-13T01:04:20;16.90;;;7.07;;
28960;SDS011;16068;42.896;20.868;2023-03-13T01:07:07;18.35;;;7.13;;
28960;SDS011;16068;42.896;20.868;2023-03-13T01:09:53;13.93;;;6.68;;
28960;SDS011;16068;42.896;20.868;2023-03-13T01:12:39;11.85;;;6.82;;
28960;SDS011;16068;42.896;20.868;2023-03-13T01:15:26;13.60;;;6.55;;
28960;SDS011;16068;42.896;20.868;2023-03-13T01:18:12;13.70;;;6.30;;
28960;SDS011;16068;42.896;20.868;2023-03-13T01:21:00;11.60;;;6.25;;
28960;SDS011;16068;42.896;20.868;2023-03-13T01:23:46;10.73;;;5.63;;
28960;SDS011;16068;42.896;20.868;2023-03-13T01:26:33;15.38;;;5.82;;
28960;SDS011;16068;42.896;20.868;2023-03-13T01:29:19;17.85;;;6.30;;
28960;SDS011;16068;42.896;20.868;2023-03-13T01:32:07;9.75;;;5.13;;
28960;SDS011;16068;42.896;20.868;2023-03-13T01:34:53;9.40;;;5.40;;
28960;SDS011;16068;42.896;20.868;2023-03-13T01:37:39;10.35;;;4.82;;
28960;SDS011;16068;42.896;20.868;2023-03-13T01:40:25;15.13;;;5.43;;
28960;SDS011;16068;42.896;20.868;2023-03-13T01:43:19;10.98;;;4.93;;
28960;SDS011;16068;42.896;20.868;2023-03-13T01:46:20;8.65;;;4.63;;
28960;SDS011;16068;42.896;20.868;2023-03-13T01:52:22;12.90;;;5.15;;
28960;SDS011;16068;42.896;20.868;2023-03-13T01:55:33;13.07;;;8.00;;
28960;SDS011;16068;42.896;20.868;2023-03-13T01:58:20;9.13;;;4.72;;
28960;SDS011;16068;42.896;20.868;2023-03-13T02:01:06;8.27;;;4.53;;
28960;SDS011;16068;42.896;20.868;2023-03-13T02:03:55;9.30;;;4.95;;
28960;SDS011;16068;42.896;20.868;2023-03-13T02:06:44;11.27;;;5.18;;
28960;SDS011;16068;42.896;20.868;2023-03-13T02:09:33;12.93;;;5.00;;
28960;SDS011;16068;42.896;20.868;2023-03-13T02:15:19;11.63;;;5.05;;
28960;SDS011;16068;42.896;20.868;2023-03-13T02:18:06;12.60;;;5.32;;
28960;SDS011;16068;42.896;20.868;2023-03-13T02:20:52;9.18;;;4.70;;
28960;SDS011;16068;42.896;20.868;2023-03-13T02:23:49;10.23;;;5.10;;
28960;SDS011;16068;42.896;20.868;2023-03-13T02:26:43;8.00;;;4.45;;
28960;SDS011;16068;42.896;20.868;2023-03-13T02:29:29;7.95;;;4.10;;
28960;SDS011;16068;42.896;20.868;2023-03-13T02:32:15;9.00;;;4.95;;
28960;SDS011;16068;42.896;20.868;2023-03-13T02:35:03;8.63;;;4.20;;
28960;SDS011;16068;42.896;20.868;2023-03-13T02:37:53;7.00;;;3.92;;
28960;SDS011;16068;42.896;20.868;2023-03-13T02:40:43;7.50;;;3.90;;
28960;SDS011;16068;42.896;20.868;2023-03-13T02:43:31;9.73;;;4.13;;
28960;SDS011;16068;42.896;20.868;2023-03-13T02:46:20;20.77;;;7.22;;
28960;SDS011;16068;42.896;20.868;2023-03-13T02:49:21;11.50;;;4.68;;
28960;SDS011;16068;42.896;20.868;2023-03-13T02:52:22;8.38;;;4.25;;
28960;SDS011;16068;42.896;20.868;2023-03-13T02:55:13;9.27;;;4.80;;
28960;SDS011;16068;42.896;20.868;2023-03-13T02:58:04;10.10;;;4.45;;
28960;SDS011;16068;42.896;20.868;2023-03-13T03:00:53;7.88;;;3.83;;
28960;SDS011;16068;42.896;20.868;2023-03-13T03:03:39;10.35;;;3.90;;
28960;SDS011;16068;42.896;20.868;2023-03-13T03:06:25;8.68;;;3.78;;
28960;SDS011;16068;42.896;20.868;2023-03-13T03:09:12;9.20;;;3.72;;
28960;SDS011;16068;42.896;20.868;2023-03-13T03:11:57;7.93;;;3.83;;
28960;SDS011;16068;42.896;20.868;2023-03-13T03:14:46;7.07;;;3.35;;
28960;SDS011;16068;42.896;20.868;2023-03-13T03:17:33;8.27;;;3.72;;
28960;SDS011;16068;42.896;20.868;2023-03-13T03:20:19;6.38;;;4.05;;
28960;SDS011;16068;42.896;20.868;2023-03-13T03:23:04;9.23;;;3.90;;
28960;SDS011;16068;42.896;20.868;2023-03-13T03:25:50;6.03;;;3.63;;
28960;SDS011;16068;42.896;20.868;2023-03-13T03:28:36;8.70;;;3.33;;
28960;SDS011;16068;42.896;20.868;2023-03-13T03:31:26;8.98;;;3.90;;
28960;SDS011;16068;42.896;20.868;2023-03-13T03:34:14;7.95;;;3.70;;
28960;SDS011;16068;42.896;20.868;2023-03-13T03:37:00;7.03;;;3.97;;
28960;SDS011;16068;42.896;20.868;2023-03-13T03:39:46;5.78;;;3.58;;
28960;SDS011;16068;42.896;20.868;2023-03-13T03:42:32;7.68;;;3.70;;
28960;SDS011;16068;42.896;20.868;2023-03-13T03:45:19;7.68;;;3.50;;
28960;SDS011;16068;42.896;20.868;2023-03-13T03:48:05;9.27;;;3.88;;
28960;SDS011;16068;42.896;20.868;2023-03-13T03:50:51;6.93;;;3.65;;
28960;SDS011;16068;42.896;20.868;2023-03-13T03:53:38;9.05;;;3.83;;
28960;SDS011;16068;42.896;20.868;2023-03-13T03:56:25;11.00;;;4.03;;
28960;SDS011;16068;42.896;20.868;2023-03-13T03:59:14;8.18;;;3.83;;
28960;SDS011;16068;42.896;20.868;2023-03-13T04:02:05;8.15;;;4.15;;
28960;SDS011;16068;42.896;20.868;2023-03-13T04:04:53;6.80;;;4.18;;
28960;SDS011;16068;42.896;20.868;2023-03-13T04:07:43;9.00;;;4.15;;
28960;SDS011;16068;42.896;20.868;2023-03-13T04:10:29;11.55;;;4.40;;
28960;SDS011;16068;42.896;20.868;2023-03-13T04:13:15;9.35;;;4.90;;
28960;SDS011;16068;42.896;20.868;2023-03-13T04:16:06;10.60;;;5.15;;
28960;SDS011;16068;42.896;20.868;2023-03-13T04:18:53;11.38;;;5.35;;
28960;SDS011;16068;42.896;20.868;2023-03-13T04:21:42;12.20;;;5.10;;
28960;SDS011;16068;42.896;20.868;2023-03-13T04:24:32;8.23;;;4.50;;
28960;SDS011;16068;42.896;20.868;2023-03-13T04:27:18;11.20;;;4.80;;
28960;SDS011;16068;42.896;20.868;2023-03-13T04:30:05;9.25;;;4.80;;
28960;SDS011;16068;42.896;20.868;2023-03-13T04:33:25;9.35;;;4.55;;
28960;SDS011;16068;42.896;20.868;2023-03-13T04:39:35;8.25;;;4.20;;
28960;SDS011;16068;42.896;20.868;2023-03-13T04:42:44;9.73;;;4.47;;
28960;SDS011;16068;42.896;20.868;2023-03-13T04:45:51;14.27;;;4.82;;
28960;SDS011;16068;42.896;20.868;2023-03-13T04:48:53;16.05;;;5.32;;
28960;SDS011;16068;42.896;20.868;2023-03-13T04:51:59;13.20;;;5.57;;
28960;SDS011;16068;42.896;20.868;2023-03-13T04:55:11;11.15;;;5.22;;
28960;SDS011;16068;42.896;20.868;2023-03-13T04:58:25;14.48;;;5.50;;
28960;SDS011;16068;42.896;20.868;2023-03-13T05:01:27;22.00;;;6.97;;
28960;SDS011;16068;42.896;20.868;2023-03-13T05:04:26;18.63;;;6.65;;
28960;SDS011;16068;42.896;20.868;2023-03-13T05:07:29;13.35;;;6.90;;
28960;SDS011;16068;42.896;20.868;2023-03-13T05:10:18;27.92;;;8.32;;
28960;SDS011;16068;42.896;20.868;2023-03-13T05:16:08;27.98;;;12.25;;
28960;SDS011;16068;42.896;20.868;2023-03-13T05:22:37;23.70;;;13.02;;
28960;SDS011;16068;42.896;20.868;2023-03-13T05:25:37;29.13;;;14.90;;
28960;SDS011;16068;42.896;20.868;2023-03-13T05:28:35;33.13;;;15.18;;
28960;SDS011;16068;42.896;20.868;2023-03-13T05:31:32;26.67;;;14.27;;
28960;SDS011;16068;42.896;20.868;2023-03-13T05:34:48;31.13;;;14.35;;
28960;SDS011;16068;42.896;20.868;2023-03-13T05:38:00;30.70;;;14.57;;
28960;SDS011;16068;42.896;20.868;2023-03-13T05:41:06;28.50;;;12.50;;
28960;SDS011;16068;42.896;20.868;2023-03-13T05:44:15;32.38;;;12.95;;
28960;SDS011;16068;42.896;20.868;2023-03-13T05:47:19;25.00;;;13.18;;
28960;SDS011;16068;42.896;20.868;2023-03-13T05:50:26;28.77;;;12.95;;
28960;SDS011;16068;42.896;20.868;2023-03-13T05:53:35;31.45;;;15.45;;
28960;SDS011;16068;42.896;20.868;2023-03-13T05:56:28;31.65;;;15.45;;
28960;SDS011;16068;42.896;20.868;2023-03-13T05:59:37;25.60;;;13.65;;
28960;SDS011;16068;42.896;20.868;2023-03-13T06:02:42;33.33;;;15.75;;
28960;SDS011;16068;42.896;20.868;2023-03-13T06:05:33;32.08;;;15.57;;
28960;SDS011;16068;42.896;20.868;2023-03-13T06:08:22;29.65;;;12.93;;
28960;SDS011;16068;42.896;20.868;2023-03-13T06:11:09;25.83;;;13.00;;
28960;SDS011;16068;42.896;20.868;2023-03-13T06:13:56;27.42;;;13.07;;
28960;SDS011;16068;42.896;20.868;2023-03-13T06:17:11;30.08;;;12.80;;
28960;SDS011;16068;42.896;20.868;2023-03-13T06:19:57;21.80;;;10.75;;
28960;SDS011;16068;42.896;20.868;2023-03-13T06:22:43;29.88;;;12.18;;
28960;SDS011;16068;42.896;20.868;2023-03-13T06:25:28;37.90;;;13.82;;
28960;SDS011;16068;42.896;20.868;2023-03-13T06:28:14;29.00;;;13.07;;
28960;SDS011;16068;42.896;20.868;2023-03-13T06:31:04;33.53;;;15.77;;
28960;SDS011;16068;42.896;20.868;2023-03-13T06:33:54;39.45;;;18.60;;
28960;SDS011;16068;42.896;20.868;2023-03-13T06:36:40;50.05;;;20.70;;
28960;SDS011;16068;42.896;20.868;2023-03-13T06:39:26;52.22;;;21.77;;
28960;SDS011;16068;42.896;20.868;2023-03-13T06:42:12;45.30;;;19.63;;
28960;SDS011;16068;42.896;20.868;2023-03-13T06:44:58;39.40;;;18.30;;
28960;SDS011;16068;42.896;20.868;2023-03-13T06:47:44;37.00;;;17.08;;
28960;SDS011;16068;42.896;20.868;2023-03-13T06:50:29;42.17;;;16.75;;
28960;SDS011;16068;42.896;20.868;2023-03-13T06:53:17;34.15;;;15.75;;
28960;SDS011;16068;42.896;20.868;2023-03-13T06:56:04;33.10;;;17.48;;
28960;SDS011;16068;42.896;20.868;2023-03-13T06:58:50;35.17;;;17.95;;
28960;SDS011;16068;42.896;20.868;2023-03-13T07:01:35;37.60;;;20.08;;
28960;SDS011;16068;42.896;20.868;2023-03-13T07:04:21;48.45;;;23.13;;
28960;SDS011;16068;42.896;20.868;2023-03-13T07:07:07;34.42;;;18.33;;
28960;SDS011;16068;42.896;20.868;2023-03-13T07:10:07;38.90;;;18.02;;
28960;SDS011;16068;42.896;20.868;2023-03-13T07:12:54;34.80;;;17.25;;
28960;SDS011;16068;42.896;20.868;2023-03-13T07:15:40;37.90;;;16.55;;
28960;SDS011;16068;42.896;20.868;2023-03-13T07:18:26;33.10;;;17.05;;
28960;SDS011;16068;42.896;20.868;2023-03-13T07:21:12;44.92;;;17.55;;
28960;SDS011;16068;42.896;20.868;2023-03-13T07:23:58;42.85;;;21.08;;
28960;SDS011;16068;42.896;20.868;2023-03-13T07:26:44;45.50;;;20.70;;
28960;SDS011;16068;42.896;20.868;2023-03-13T07:29:50;61.05;;;21.38;;
28960;SDS011;16068;42.896;20.868;2023-03-13T07:32:35;40.28;;;18.15;;
28960;SDS011;16068;42.896;20.868;2023-03-13T07:35:22;47.38;;;19.63;;
28960;SDS011;16068;42.896;20.868;2023-03-13T07:38:08;46.15;;;19.88;;
28960;SDS011;16068;42.896;20.868;2023-03-13T07:40:54;32.17;;;16.63;;
28960;SDS011;16068;42.896;20.868;2023-03-13T07:43:41;41.83;;;17.83;;
28960;SDS011;16068;42.896;20.868;2023-03-13T07:46:27;37.05;;;17.45;;
28960;SDS011;16068;42.896;20.868;2023-03-13T07:49:13;43.08;;;17.50;;
28960;SDS011;16068;42.896;20.868;2023-03-13T07:51:59;36.72;;;16.42;;
28960;SDS011;16068;42.896;20.868;2023-03-13T07:54:44;32.95;;;16.05;;
28960;SDS011;16068;42.896;20.868;2023-03-13T07:57:30;23.77;;;13.68;;
28960;SDS011;16068;42.896;20.868;2023-03-13T08:00:16;22.23;;;12.85;;
28960;SDS011;16068;42.896;20.868;2023-03-13T08:03:02;21.40;;;11.68;;
28960;SDS011;16068;42.896;20.868;2023-03-13T08:05:58;26.88;;;11.30;;
28960;SDS011;16068;42.896;20.868;2023-03-13T08:08:55;20.35;;;11.32;;
28960;SDS011;16068;42.896;20.868;2023-03-13T08:11:42;27.23;;;12.38;;
28960;SDS011;16068;42.896;20.868;2023-03-13T08:14:31;31.52;;;12.40;;
28960;SDS011;16068;42.896;20.868;2023-03-13T08:17:17;19.25;;;10.93;;
28960;SDS011;16068;42.896;20.868;2023-03-13T08:20:02;34.25;;;12.57;;
28960;SDS011;16068;42.896;20.868;2023-03-13T08:22:53;26.92;;;12.73;;
28960;SDS011;16068;42.896;20.868;2023-03-13T08:25:39;19.52;;;10.48;;
28960;SDS011;16068;42.896;20.868;2023-03-13T08:28:25;24.05;;;11.68;;
28960;SDS011;16068;42.896;20.868;2023-03-13T08:31:12;18.95;;;8.98;;
28960;SDS011;16068;42.896;20.868;2023-03-13T08:34:00;24.98;;;10.98;;
28960;SDS011;16068;42.896;20.868;2023-03-13T08:36:47;50.30;;;26.20;;
28960;SDS011;16068;42.896;20.868;2023-03-13T08:39:33;43.40;;;20.98;;
28960;SDS011;16068;42.896;20.868;2023-03-13T08:42:21;40.40;;;18.23;;
28960;SDS011;16068;42.896;20.868;2023-03-13T08:45:07;97.03;;;45.28;;
28960;SDS011;16068;42.896;20.868;2023-03-13T08:47:54;57.22;;;25.38;;
28960;SDS011;16068;42.896;20.868;2023-03-13T08:50:39;43.60;;;18.73;;
28960;SDS011;16068;42.896;20.868;2023-03-13T08:53:25;19.88;;;10.77;;
28960;SDS011;16068;42.896;20.868;2023-03-13T08:56:16;22.48;;;11.02;;
28960;SDS011;16068;42.896;20.868;2023-03-13T08:59:04;25.20;;;13.18;;
28960;SDS011;16068;42.896;20.868;2023-03-13T09:01:50;27.85;;;11.60;;
28960;SDS011;16068;42.896;20.868;2023-03-13T09:04:36;27.98;;;11.85;;
28960;SDS011;16068;42.896;20.868;2023-03-13T09:07:22;21.67;;;10.52;;
28960;SDS011;16068;42.896;20.868;2023-03-13T09:10:09;20.58;;;10.98;;
28960;SDS011;16068;42.896;20.868;2023-03-13T09:12:55;18.98;;;9.15;;
28960;SDS011;16068;42.896;20.868;2023-03-13T09:15:40;16.88;;;8.65;;
28960;SDS011;16068;42.896;20.868;2023-03-13T09:18:27;17.65;;;8.75;;
28960;SDS011;16068;42.896;20.868;2023-03-13T09:21:18;22.90;;;8.20;;
28960;SDS011;16068;42.896;20.868;2023-03-13T09:24:08;15.70;;;7.93;;
28960;SDS011;16068;42.896;20.868;2023-03-13T09:26:54;15.73;;;6.88;;
28960;SDS011;16068;42.896;20.868;2023-03-13T09:29:46;17.80;;;7.68;;
28960;SDS011;16068;42.896;20.868;2023-03-13T09:32:34;15.35;;;7.72;;
28960;SDS011;16068;42.896;20.868;2023-03-13T09:35:19;13.38;;;6.63;;
28960;SDS011;16068;42.896;20.868;2023-03-13T09:38:05;9.25;;;6.03;;
28960;SDS011;16068;42.896;20.868;2023-03-13T09:40:54;12.02;;;6.85;;
28960;SDS011;16068;42.896;20.868;2023-03-13T09:47:00;15.60;;;9.13;;
28960;SDS011;16068;42.896;20.868;2023-03-13T09:50:17;17.67;;;7.07;;
28960;SDS011;16068;42.896;20.868;2023-03-13T09:53:14;12.02;;;5.68;;
28960;SDS011;16068;42.896;20.868;2023-03-13T09:56:11;12.80;;;5.28;;
28960;SDS011;16068;42.896;20.868;2023-03-13T09:59:10;15.77;;;5.68;;
28960;SDS011;16068;42.896;20.868;2023-03-13T10:02:03;10.68;;;6.47;;
28960;SDS011;16068;42.896;20.868;2023-03-13T10:05:24;13.38;;;6.95;;
28960;SDS011;16068;42.896;20.868;2023-03-13T10:08:17;11.55;;;6.90;;
28960;SDS011;16068;42.896;20.868;2023-03-13T10:14:56;11.30;;;7.05;;
28960;SDS011;16068;42.896;20.868;2023-03-13T10:17:43;22.55;;;10.35;;
28960;SDS011;16068;42.896;20.868;2023-03-13T10:20:32;31.17;;;14.27;;
28960;SDS011;16068;42.896;20.868;2023-03-13T10:23:45;45.35;;;23.58;;
28960;SDS011;16068;42.896;20.868;2023-03-13T10:26:32;18.00;;;9.52;;
28960;SDS011;16068;42.896;20.868;2023-03-13T10:32:07;20.73;;;8.40;;
28960;SDS011;16068;42.896;20.868;2023-03-13T10:34:59;20.70;;;9.27;;
28960;SDS011;16068;42.896;20.868;2023-03-13T10:37:47;27.08;;;11.38;;
28960;SDS011;16068;42.896;20.868;2023-03-13T10:40:32;24.10;;;9.57;;
28960;SDS011;16068;42.896;20.868;2023-03-13T10:43:19;27.13;;;10.60;;
28960;SDS011;16068;42.896;20.868;2023-03-13T10:46:07;44.30;;;10.57;;
28960;SDS011;16068;42.896;20.868;2023-03-13T10:48:54;33.90;;;7.35;;
28960;SDS011;16068;42.896;20.868;2023-03-13T10:51:44;20.77;;;10.23;;
28960;SDS011;16068;42.896;20.868;2023-03-13T10:54:34;18.02;;;7.00;;
28960;SDS011;16068;42.896;20.868;2023-03-13T11:03:30;30.58;;;6.95;;
28960;SDS011;16068;42.896;20.868;2023-03-13T11:06:23;17.85;;;6.65;;
28960;SDS011;16068;42.896;20.868;2023-03-13T11:12:43;23.08;;;7.35;;
28960;SDS011;16068;42.896;20.868;2023-03-13T11:15:12;11.25;;;6.13;;
28960;SDS011;16068;42.896;20.868;2023-03-13T11:21:07;16.02;;;5.43;;
28960;SDS011;16068;42.896;20.868;2023-03-13T11:24:39;15.30;;;7.05;;
28960;SDS011;16068;42.896;20.868;2023-03-13T11:34:00;13.73;;;5.95;;
28960;SDS011;16068;42.896;20.868;2023-03-13T11:37:10;25.10;;;6.97;;
28960;SDS011;16068;42.896;20.868;2023-03-13T11:40:20;30.13;;;8.02;;
28960;SDS011;16068;42.896;20.868;2023-03-13T11:43:15;22.40;;;6.65;;
28960;SDS011;16068;42.896;20.868;2023-03-13T11:50:18;18.37;;;7.40;;
28960;SDS011;16068;42.896;20.868;2023-03-13T11:52:55;19.17;;;7.90;;
28960;SDS011;16068;42.896;20.868;2023-03-13T12:04:57;24.38;;;6.53;;
28960;SDS011;16068;42.896;20.868;2023-03-13T12:13:30;12.68;;;5.63;;
28960;SDS011;16068;42.896;20.868;2023-03-13T12:16:20;14.32;;;6.78;;
28960;SDS011;16068;42.896;20.868;2023-03-13T12:19:09;13.43;;;6.05;;
28960;SDS011;16068;42.896;20.868;2023-03-13T12:22:08;14.65;;;5.85;;
28960;SDS011;16068;42.896;20.868;2023-03-13T12:25:09;15.45;;;5.90;;
28960;SDS011;16068;42.896;20.868;2023-03-13T12:31:12;13.43;;;6.28;;
28960;SDS011;16068;42.896;20.868;2023-03-13T12:34:15;12.07;;;5.85;;
28960;SDS011;16068;42.896;20.868;2023-03-13T12:37:23;17.15;;;6.05;;
28960;SDS011;16068;42.896;20.868;2023-03-13T12:43:25;10.65;;;4.72;;
28960;SDS011;16068;42.896;20.868;2023-03-13T13:00:55;11.60;;;4.20;;
28960;SDS011;16068;42.896;20.868;2023-03-13T13:03:57;12.07;;;5.25;;
28960;SDS011;16068;42.896;20.868;2023-03-13T13:06:56;11.43;;;4.05;;
28960;SDS011;16068;42.896;20.868;2023-03-13T13:10:33;10.27;;;4.07;;
28960;SDS011;16068;42.896;20.868;2023-03-13T13:25:37;11.95;;;3.72;;
28960;SDS011;16068;42.896;20.868;2023-03-13T13:28:28;12.48;;;4.18;;
28960;SDS011;16068;42.896;20.868;2023-03-13T13:43:00;16.73;;;4.43;;
28960;SDS011;16068;42.896;20.868;2023-03-13T13:46:02;13.00;;;4.00;;
28960;SDS011;16068;42.896;20.868;2023-03-13T13:54:55;9.63;;;4.72;;
28960;SDS011;16068;42.896;20.868;2023-03-13T13:57:41;17.30;;;4.88;;
28960;SDS011;16068;42.896;20.868;2023-03-13T14:00:33;13.65;;;5.20;;
28960;SDS011;16068;42.896;20.868;2023-03-13T14:03:28;19.02;;;4.35;;
28960;SDS011;16068;42.896;20.868;2023-03-13T14:06:27;15.88;;;5.18;;
28960;SDS011;16068;42.896;20.868;2023-03-13T14:09:22;17.60;;;5.55;;
28960;SDS011;16068;42.896;20.868;2023-03-13T14:12:26;21.75;;;5.78;;
28960;SDS011;16068;42.896;20.868;2023-03-13T14:15:14;15.15;;;8.18;;
28960;SDS011;16068;42.896;20.868;2023-03-13T14:21:06;17.30;;;5.63;;
28960;SDS011;16068;42.896;20.868;2023-03-13T14:24:11;16.38;;;6.50;;
28960;SDS011;16068;42.896;20.868;2023-03-13T14:26:58;11.02;;;5.40;;
28960;SDS011;16068;42.896;20.868;2023-03-13T14:29:58;15.27;;;6.00;;
28960;SDS011;16068;42.896;20.868;2023-03-13T14:32:52;10.57;;;5.10;;
28960;SDS011;16068;42.896;20.868;2023-03-13T14:35:39;15.13;;;6.22;;
28960;SDS011;16068;42.896;20.868;2023-03-13T14:38:26;21.65;;;8.57;;
28960;SDS011;16068;42.896;20.868;2023-03-13T14:41:21;13.15;;;5.63;;
28960;SDS011;16068;42.896;20.868;2023-03-13T14:44:24;17.48;;;5.32;;
28960;SDS011;16068;42.896;20.868;2023-03-13T14:50:10;13.63;;;4.97;;
28960;SDS011;16068;42.896;20.868;2023-03-13T14:52:59;13.63;;;4.75;;
28960;SDS011;16068;42.896;20.868;2023-03-13T14:56:16;17.13;;;5.60;;
28960;SDS011;16068;42.896;20.868;2023-03-13T15:07:52;13.43;;;5.15;;
28960;SDS011;16068;42.896;20.868;2023-03-13T15:10:39;15.10;;;4.80;;
28960;SDS011;16068;42.896;20.868;2023-03-13T15:16:17;15.93;;;6.35;;
28960;SDS011;16068;42.896;20.868;2023-03-13T15:19:05;11.35;;;6.32;;
28960;SDS011;16068;42.896;20.868;2023-03-13T15:21:52;15.43;;;7.60;;
28960;SDS011;16068;42.896;20.868;2023-03-13T15:24:43;20.80;;;8.35;;
28960;SDS011;16068;42.896;20.868;2023-03-13T15:27:49;20.80;;;8.07;;
28960;SDS011;16068;42.896;20.868;2023-03-13T15:30:35;19.08;;;7.13;;
28960;SDS011;16068;42.896;20.868;2023-03-13T15:33:21;22.33;;;7.93;;
28960;SDS011;16068;42.896;20.868;2023-03-13T15:36:08;21.60;;;8.77;;
28960;SDS011;16068;42.896;20.868;2023-03-13T15:38:55;24.88;;;8.38;;
28960;SDS011;16068;42.896;20.868;2023-03-13T15:41:41;24.95;;;8.05;;
28960;SDS011;16068;42.896;20.868;2023-03-13T15:47:57;13.65;;;5.93;;
28960;SDS011;16068;42.896;20.868;2023-03-13T15:50:54;24.98;;;7.70;;
28960;SDS011;16068;42.896;20.868;2023-03-13T15:57:24;24.40;;;7.78;;
28960;SDS011;16068;42.896;20.868;2023-03-13T16:00:16;25.65;;;7.90;;
28960;SDS011;16068;42.896;20.868;2023-03-13T16:03:15;36.75;;;8.63;;
28960;SDS011;16068;42.896;20.868;2023-03-13T16:08:58;21.98;;;8.50;;
28960;SDS011;16068;42.896;20.868;2023-03-13T16:11:46;26.08;;;9.05;;
28960;SDS011;16068;42.896;20.868;2023-03-13T16:14:32;26.52;;;9.95;;
28960;SDS011;16068;42.896;20.868;2023-03-13T16:17:20;29.83;;;11.77;;
28960;SDS011;16068;42.896;20.868;2023-03-13T16:20:14;23.42;;;11.00;;
28960;SDS011;16068;42.896;20.868;2023-03-13T16:23:02;31.63;;;12.30;;
28960;SDS011;16068;42.896;20.868;2023-03-13T16:25:48;17.00;;;8.23;;
28960;SDS011;16068;42.896;20.868;2023-03-13T16:28:33;19.23;;;10.07;;
28960;SDS011;16068;42.896;20.868;2023-03-13T16:31:23;38.33;;;19.08;;
28960;SDS011;16068;42.896;20.868;2023-03-13T16:34:11;35.80;;;14.30;;
28960;SDS011;16068;42.896;20.868;2023-03-13T16:36:57;30.85;;;10.70;;
28960;SDS011;16068;42.896;20.868;2023-03-13T16:39:43;19.52;;;11.13;;
28960;SDS011;16068;42.896;20.868;2023-03-13T16:42:33;26.17;;;12.63;;
28960;SDS011;16068;42.896;20.868;2023-03-13T16:45:19;25.85;;;13.80;;
28960;SDS011;16068;42.896;20.868;2023-03-13T16:48:11;31.77;;;15.20;;
28960;SDS011;16068;42.896;20.868;2023-03-13T16:51:01;37.63;;;16.42;;
28960;SDS011;16068;42.896;20.868;2023-03-13T16:53:49;34.22;;;16.75;;
28960;SDS011;16068;42.896;20.868;2023-03-13T16:56:36;39.00;;;15.88;;
28960;SDS011;16068;42.896;20.868;2023-03-13T16:59:24;49.97;;;18.20;;
28960;SDS011;16068;42.896;20.868;2023-03-13T17:02:14;33.60;;;18.00;;
28960;SDS011;16068;42.896;20.868;2023-03-13T17:05:03;44.25;;;16.65;;
28960;SDS011;16068;42.896;20.868;2023-03-13T17:07:50;49.33;;;22.77;;
28960;SDS011;16068;42.896;20.868;2023-03-13T17:10:37;43.30;;;21.95;;
28960;SDS011;16068;42.896;20.868;2023-03-13T17:13:23;58.38;;;24.77;;
28960;SDS011;16068;42.896;20.868;2023-03-13T17:19:18;49.85;;;22.85;;
28960;SDS011;16068;42.896;20.868;2023-03-13T17:22:04;55.80;;;23.00;;
28960;SDS011;16068;42.896;20.868;2023-03-13T17:24:50;63.15;;;23.25;;
28960;SDS011;16068;42.896;20.868;2023-03-13T17:27:36;54.38;;;26.20;;
28960;SDS011;16068;42.896;20.868;2023-03-13T17:30:29;47.33;;;20.20;;
28960;SDS011;16068;42.896;20.868;2023-03-13T17:33:15;55.35;;;18.05;;
28960;SDS011;16068;42.896;20.868;2023-03-13T17:36:01;43.38;;;18.25;;
28960;SDS011;16068;42.896;20.868;2023-03-13T17:38:58;54.22;;;19.08;;
28960;SDS011;16068;42.896;20.868;2023-03-13T17:41:45;40.45;;;12.88;;
28960;SDS011;16068;42.896;20.868;2023-03-13T17:44:31;24.08;;;11.73;;
28960;SDS011;16068;42.896;20.868;2023-03-13T17:47:19;33.17;;;11.98;;
28960;SDS011;16068;42.896;20.868;2023-03-13T17:50:18;36.63;;;12.10;;
28960;SDS011;16068;42.896;20.868;2023-03-13T17:53:07;56.45;;;10.45;;
28960;SDS011;16068;42.896;20.868;2023-03-13T17:55:53;25.98;;;8.75;;
28960;SDS011;16068;42.896;20.868;2023-03-13T17:58:39;27.65;;;8.23;;
28960;SDS011;16068;42.896;20.868;2023-03-13T18:01:26;31.38;;;8.30;;
28960;SDS011;16068;42.896;20.868;2023-03-13T18:04:15;42.67;;;8.45;;
28960;SDS011;16068;42.896;20.868;2023-03-13T18:07:01;30.27;;;9.00;;
28960;SDS011;16068;42.896;20.868;2023-03-13T18:09:48;21.80;;;9.57;;
28960;SDS011;16068;42.896;20.868;2023-03-13T18:12:34;36.15;;;11.10;;
28960;SDS011;16068;42.896;20.868;2023-03-13T18:15:21;31.63;;;13.27;;
28960;SDS011;16068;42.896;20.868;2023-03-13T18:18:12;36.45;;;12.00;;
28960;SDS011;16068;42.896;20.868;2023-03-13T18:21:00;39.70;;;10.68;;
28960;SDS011;16068;42.896;20.868;2023-03-13T18:23:46;29.38;;;9.82;;
28960;SDS011;16068;42.896;20.868;2023-03-13T18:26:35;33.72;;;12.68;;
28960;SDS011;16068;42.896;20.868;2023-03-13T18:29:23;38.35;;;14.63;;
28960;SDS011;16068;42.896;20.868;2023-03-13T18:32:14;54.92;;;24.98;;
28960;SDS011;16068;42.896;20.868;2023-03-13T18:35:01;70.32;;;29.92;;
28960;SDS011;16068;42.896;20.868;2023-03-13T18:37:47;88.82;;;32.25;;
28960;SDS011;16068;42.896;20.868;2023-03-13T18:40:34;78.13;;;29.52;;
28960;SDS011;16068;42.896;20.868;2023-03-13T18:43:19;96.00;;;40.22;;
28960;SDS011;16068;42.896;20.868;2023-03-13T18:46:07;70.55;;;33.05;;
28960;SDS011;16068;42.896;20.868;2023-03-13T18:48:56;70.50;;;28.63;;
28960;SDS011;16068;42.896;20.868;2023-03-13T18:51:43;58.35;;;23.98;;
28960;SDS011;16068;42.896;20.868;2023-03-13T18:54:29;61.25;;;26.27;;
28960;SDS011;16068;42.896;20.868;2023-03-13T18:57:17;56.75;;;25.50;;
28960;SDS011;16068;42.896;20.868;2023-03-13T19:00:11;57.10;;;24.67;;
28960;SDS011;16068;42.896;20.868;2023-03-13T19:03:18;66.22;;;24.42;;